createdAt,value
2018-01-07T00:00:52.950Z,93.10
2018-01-07T00:03:21.205Z,93.10
2018-01-07T00:05:48.734Z,93.10
2018-01-07T00:08:16.291Z,93.10
2018-01-07T00:10:43.925Z,93.20
2018-01-07T00:13:12.232Z,93.20
2018-01-07T00:15:39.706Z,93.20
2018-01-07T00:18:07.206Z,93.20
2018-01-07T00:20:34.684Z,93.20
2018-01-07T00:23:02.910Z,93.20
2018-01-07T00:25:30.414Z,93.20
2018-01-07T00:27:58.641Z,93.20
2018-01-07T00:30:26.138Z,93.20
2018-01-07T00:32:54.370Z,93.10
2018-01-07T00:35:21.865Z,93.10
2018-01-07T00:37:49.354Z,93.10
2018-01-07T00:40:16.866Z,93.10
2018-01-07T00:42:44.345Z,93.10
2018-01-07T00:45:11.831Z,93.10
2018-01-07T00:47:40.086Z,93.10
2018-01-07T00:50:08.339Z,93.10
2018-01-07T00:52:35.812Z,93.10
2018-01-07T00:55:03.302Z,93.10
2018-01-07T00:57:30.769Z,93.10
2018-01-07T00:59:58.312Z,93.10
2018-01-07T01:02:26.534Z,93.00
2018-01-07T01:04:54.041Z,93.00
2018-01-07T01:07:22.294Z,93.10
2018-01-07T01:09:49.760Z,93.10
2018-01-07T01:12:18.006Z,93.10
2018-01-07T01:14:45.481Z,93.10
2018-01-07T01:17:13.010Z,93.10
2018-01-07T01:19:40.467Z,93.10
2018-01-07T01:22:07.970Z,93.10
2018-01-07T01:24:36.193Z,93.00
2018-01-07T01:27:03.674Z,93.00
2018-01-07T01:29:31.176Z,93.00
2018-01-07T01:31:59.411Z,93.10
2018-01-07T01:34:26.906Z,93.10
2018-01-07T01:36:55.150Z,93.10
2018-01-07T01:39:22.611Z,93.10
2018-01-07T01:41:50.114Z,93.10
2018-01-07T01:44:17.602Z,93.10
2018-01-07T01:46:45.097Z,93.20
2018-01-07T01:49:22.493Z,93.10
2018-01-07T01:51:49.978Z,93.10
2018-01-07T01:54:18.198Z,93.10
2018-01-07T01:56:45.680Z,93.00
2018-01-07T01:59:13.178Z,93.10
2018-01-07T02:01:40.642Z,93.10
2018-01-07T02:04:08.157Z,93.10
2018-01-07T02:06:35.615Z,93.00
2018-01-07T02:09:03.133Z,93.10
2018-01-07T02:11:30.612Z,93.10
2018-01-07T02:13:58.077Z,93.10
2018-01-07T02:16:25.711Z,93.10
2018-01-07T02:18:53.192Z,93.10
2018-01-07T02:21:20.683Z,93.10
2018-01-07T02:23:48.931Z,93.10
2018-01-07T02:26:16.434Z,93.10
2018-01-07T02:28:44.669Z,93.20
2018-01-07T02:31:12.166Z,93.20
2018-01-07T02:33:40.407Z,93.10
2018-01-07T02:36:07.859Z,93.10
2018-01-07T02:38:35.358Z,93.10
2018-01-07T02:41:03.733Z,93.10
2018-01-07T02:43:32.021Z,93.10
2018-01-07T02:46:00.261Z,93.10
2018-01-07T02:48:27.733Z,93.10
2018-01-07T02:50:55.321Z,93.10
2018-01-07T02:53:22.838Z,93.10
2018-01-07T02:55:50.315Z,93.10
2018-01-07T02:58:17.803Z,93.10
2018-01-07T03:00:45.287Z,93.10
2018-01-07T03:03:12.749Z,93.10
2018-01-07T03:05:40.211Z,93.10
2018-01-07T03:08:07.706Z,93.00
2018-01-07T03:10:35.963Z,93.00
2018-01-07T03:13:03.479Z,93.00
2018-01-07T03:15:30.946Z,93.00
2018-01-07T03:17:58.447Z,93.00
2018-01-07T03:20:25.926Z,93.00
2018-01-07T03:22:54.174Z,93.10
2018-01-07T03:25:21.650Z,93.10
2018-01-07T03:27:49.179Z,93.10
2018-01-07T03:30:16.646Z,93.10
2018-01-07T03:32:44.131Z,93.10
2018-01-07T03:35:11.617Z,93.00
2018-01-07T03:37:39.119Z,93.00
2018-01-07T03:40:06.644Z,92.90
2018-01-07T03:42:34.118Z,92.90
2018-01-07T03:45:01.574Z,92.90
2018-01-07T03:47:29.064Z,93.00
2018-01-07T03:49:56.538Z,93.00
2018-01-07T03:52:24.834Z,92.90
2018-01-07T03:54:53.079Z,92.90
2018-01-07T03:57:20.547Z,92.90
2018-01-07T03:59:48.048Z,92.90
2018-01-07T04:02:15.522Z,92.90
2018-01-07T04:04:43.015Z,92.90
2018-01-07T04:07:10.533Z,93.00
2018-01-07T04:09:38.006Z,92.90
2018-01-07T04:12:05.463Z,92.90
2018-01-07T04:14:32.950Z,93.00
2018-01-07T04:17:00.462Z,93.00
2018-01-07T04:19:27.976Z,93.00
2018-01-07T04:21:55.401Z,93.00
2018-01-07T04:24:22.902Z,93.00
2018-01-07T04:26:51.153Z,93.00
2018-01-07T04:29:18.660Z,93.00
2018-01-07T04:31:46.130Z,93.00
2018-01-07T04:34:13.639Z,93.00
2018-01-07T04:36:41.131Z,93.00
2018-01-07T04:39:08.634Z,93.00
2018-01-07T04:41:36.134Z,93.00
2018-01-07T04:44:04.377Z,93.00
2018-01-07T04:46:31.902Z,93.00
2018-01-07T04:48:59.391Z,93.00
2018-01-07T04:51:26.846Z,93.00
2018-01-07T04:53:54.362Z,92.90
2018-01-07T04:56:22.604Z,93.00
2018-01-07T04:58:50.122Z,93.00
2018-01-07T05:01:17.601Z,93.00
2018-01-07T05:03:45.051Z,93.00
2018-01-07T05:06:12.553Z,93.00
2018-01-07T05:08:40.794Z,93.00
2018-01-07T05:11:08.315Z,93.00
2018-01-07T05:13:35.785Z,93.10
2018-01-07T05:16:03.288Z,93.10
2018-01-07T05:18:30.750Z,93.10
2018-01-07T05:20:58.258Z,93.10
2018-01-07T05:23:25.755Z,93.10
2018-01-07T05:25:53.225Z,93.10
2018-01-07T05:28:20.726Z,93.10
2018-01-07T05:30:48.189Z,93.10
2018-01-07T05:33:15.691Z,93.10
2018-01-07T05:35:43.155Z,93.10
2018-01-07T05:38:10.666Z,93.10
2018-01-07T05:40:39.059Z,93.10
2018-01-07T05:43:06.540Z,93.00
2018-01-07T05:45:34.071Z,93.00
2018-01-07T05:48:01.533Z,93.00
2018-01-07T05:50:29.022Z,93.00
2018-01-07T05:52:56.519Z,93.00
2018-01-07T05:55:23.992Z,93.00
2018-01-07T05:57:51.497Z,93.10
2018-01-07T06:00:18.963Z,93.10
2018-01-07T06:02:46.458Z,93.00
2018-01-07T06:05:13.946Z,93.10
2018-01-07T06:07:41.480Z,93.00
2018-01-07T06:10:08.925Z,93.00
2018-01-07T06:12:36.401Z,93.00
2018-01-07T06:15:03.878Z,93.00
2018-01-07T06:17:31.361Z,92.90
2018-01-07T06:19:58.842Z,92.90
2018-01-07T06:22:26.320Z,92.90
2018-01-07T06:24:54.611Z,93.00
2018-01-07T06:27:22.098Z,92.90
2018-01-07T06:29:49.581Z,93.00
2018-01-07T06:32:17.060Z,93.00
2018-01-07T06:34:45.303Z,92.90
2018-01-07T06:37:12.803Z,92.90
2018-01-07T06:39:41.033Z,92.90
2018-01-07T06:42:08.540Z,92.90
2018-01-07T06:44:36.768Z,92.90
2018-01-07T06:47:04.220Z,92.90
2018-01-07T06:49:31.723Z,93.00
2018-01-07T06:51:59.959Z,93.00
2018-01-07T06:54:27.442Z,93.00
2018-01-07T06:56:54.921Z,93.00
2018-01-07T06:59:23.191Z,93.00
2018-01-07T07:01:51.450Z,93.00
2018-01-07T07:04:18.947Z,93.00
2018-01-07T07:06:47.186Z,93.10
2018-01-07T07:09:14.682Z,93.00
2018-01-07T07:11:42.201Z,93.10
2018-01-07T07:14:09.707Z,93.10
2018-01-07T07:16:37.198Z,93.10
2018-01-07T07:19:04.662Z,93.10
2018-01-07T07:21:32.171Z,93.10
2018-01-07T07:24:01.218Z,93.10
2018-01-07T07:26:28.721Z,93.10
2018-01-07T07:28:56.942Z,93.10
2018-01-07T07:31:24.451Z,93.10
2018-01-07T07:33:52.702Z,93.10
2018-01-07T07:36:20.187Z,93.10
2018-01-07T07:38:48.454Z,93.10
2018-01-07T07:41:15.912Z,93.10
2018-01-07T07:43:44.174Z,93.10
2018-01-07T07:46:11.679Z,93.10
2018-01-07T07:48:39.187Z,93.20
2018-01-07T07:51:06.671Z,93.20
2018-01-07T07:53:34.206Z,93.20
2018-01-07T07:56:01.688Z,93.20
2018-01-07T07:58:30.002Z,93.20
2018-01-07T08:00:57.462Z,93.20
2018-01-07T08:03:24.956Z,93.20
2018-01-07T08:05:52.462Z,93.20
2018-01-07T08:08:19.913Z,93.30
2018-01-07T08:10:47.430Z,93.60
2018-01-07T08:13:14.891Z,93.40
2018-01-07T08:15:42.388Z,93.30
2018-01-07T08:18:09.897Z,93.40
2018-01-07T08:20:37.381Z,93.40
2018-01-07T08:23:04.926Z,93.40
2018-01-07T08:25:32.398Z,93.40
2018-01-07T08:27:59.901Z,93.40
2018-01-07T08:30:27.379Z,93.40
2018-01-07T08:32:54.912Z,93.40
2018-01-07T08:35:22.407Z,93.40
2018-01-07T08:37:49.895Z,93.40
2018-01-07T08:40:18.166Z,93.40
2018-01-07T08:42:46.421Z,93.40
2018-01-07T08:45:13.918Z,93.40
2018-01-07T08:47:42.152Z,93.40
2018-01-07T08:50:09.691Z,93.40
2018-01-07T08:52:37.156Z,93.40
2018-01-07T08:55:04.704Z,93.40
2018-01-07T08:57:32.208Z,93.40
2018-01-07T08:59:59.703Z,93.40
2018-01-07T09:02:27.215Z,93.40
2018-01-07T09:04:54.716Z,93.40
2018-01-07T09:07:22.974Z,93.40
2018-01-07T09:09:50.491Z,93.40
2018-01-07T09:12:17.992Z,93.40
2018-01-07T09:14:45.501Z,93.40
2018-01-07T09:17:13.022Z,93.40
2018-01-07T09:19:41.275Z,93.40
2018-01-07T09:22:08.818Z,93.40
2018-01-07T09:24:37.069Z,93.50
2018-01-07T09:27:04.547Z,93.50
2018-01-07T09:29:32.052Z,93.40
2018-01-07T09:32:00.331Z,93.50
2018-01-07T09:34:28.741Z,93.50
2018-01-07T09:36:56.203Z,93.50
2018-01-07T09:39:23.695Z,93.40
2018-01-07T09:41:51.960Z,93.40
2018-01-07T09:44:19.414Z,93.40
2018-01-07T09:46:46.940Z,93.40
2018-01-07T09:49:14.443Z,93.40
2018-01-07T09:51:41.946Z,93.40
2018-01-07T09:54:10.206Z,93.40
2018-01-07T09:56:38.462Z,93.40
2018-01-07T09:59:06.722Z,93.40
2018-01-07T10:01:34.227Z,93.40
2018-01-07T10:04:02.523Z,93.40
2018-01-07T10:06:30.762Z,93.40
2018-01-07T10:08:58.241Z,93.40
2018-01-07T10:11:26.520Z,93.40
2018-01-07T10:13:54.768Z,93.40
2018-01-07T10:16:22.296Z,93.40
2018-01-07T10:18:49.766Z,93.40
2018-01-07T10:21:17.291Z,93.50
2018-01-07T10:23:44.820Z,93.50
2018-01-07T10:26:13.062Z,93.50
2018-01-07T10:28:40.522Z,93.50
2018-01-07T10:31:08.029Z,93.50
2018-01-07T10:33:36.250Z,93.50
2018-01-07T10:36:03.752Z,93.40
2018-01-07T10:38:32.007Z,93.50
2018-01-07T10:40:59.534Z,93.40
2018-01-07T10:43:27.008Z,93.50
2018-01-07T10:45:54.532Z,93.50
2018-01-07T10:48:21.998Z,93.50
2018-01-07T10:50:49.479Z,93.50
2018-01-07T10:53:16.984Z,93.50
2018-01-07T10:55:45.222Z,93.50
2018-01-07T10:58:12.724Z,93.50
2018-01-07T11:00:46.730Z,93.50
2018-01-07T11:03:14.969Z,93.50
2018-01-07T11:05:42.461Z,93.50
2018-01-07T11:08:09.960Z,93.50
2018-01-07T11:10:37.463Z,93.50
2018-01-07T11:13:04.971Z,93.50
2018-01-07T11:15:32.503Z,93.50
2018-01-07T11:18:00.755Z,93.50
2018-01-07T11:20:28.222Z,93.50
2018-01-07T11:22:55.739Z,93.50
2018-01-07T11:25:23.218Z,93.60
2018-01-07T11:27:50.716Z,93.60
2018-01-07T11:30:18.960Z,93.60
2018-01-07T11:32:46.483Z,93.60
2018-01-07T11:35:13.984Z,93.60
2018-01-07T11:37:41.492Z,93.60
2018-01-07T11:40:09.039Z,93.50
2018-01-07T11:42:37.282Z,93.50
2018-01-07T11:45:04.770Z,93.50
2018-01-07T11:47:33.051Z,93.60
2018-01-07T11:50:00.559Z,93.60
2018-01-07T11:52:28.051Z,93.60
2018-01-07T11:54:56.319Z,93.60
2018-01-07T11:57:23.828Z,93.60
2018-01-07T11:59:51.276Z,93.50
2018-01-07T12:02:18.766Z,93.50
2018-01-07T12:04:46.291Z,93.50
2018-01-07T12:07:13.756Z,93.50
2018-01-07T12:09:41.248Z,93.50
2018-01-07T12:12:08.730Z,93.50
2018-01-07T12:14:36.227Z,93.50
2018-01-07T12:17:03.728Z,93.50
2018-01-07T12:19:31.212Z,93.50
2018-01-07T12:21:58.674Z,93.50
2018-01-07T12:24:26.958Z,93.50
2018-01-07T12:26:55.199Z,93.50
2018-01-07T12:29:22.690Z,93.50
2018-01-07T12:31:50.954Z,93.40
2018-01-07T12:34:18.481Z,93.40
2018-01-07T12:36:45.940Z,93.50
2018-01-07T12:39:13.399Z,93.40
2018-01-07T12:41:40.890Z,93.50
2018-01-07T12:44:09.134Z,93.40
2018-01-07T12:46:36.626Z,93.40
2018-01-07T12:49:04.952Z,93.50
2018-01-07T12:51:33.187Z,93.50
2018-01-07T12:54:01.524Z,93.50
2018-01-07T12:56:29.004Z,93.50
2018-01-07T12:58:56.491Z,93.50
2018-01-07T13:01:24.760Z,93.50
2018-01-07T13:03:52.987Z,93.50
2018-01-07T13:06:20.488Z,93.50
2018-01-07T13:08:47.951Z,93.50
2018-01-07T13:11:16.261Z,93.50
2018-01-07T13:13:43.824Z,93.50
2018-01-07T13:16:11.300Z,93.50
2018-01-07T13:18:38.818Z,93.50
2018-01-07T13:21:07.098Z,93.50
2018-01-07T13:23:35.403Z,93.60
2018-01-07T13:26:02.860Z,93.60
2018-01-07T13:28:30.340Z,93.50
2018-01-07T13:30:57.840Z,93.70
2018-01-07T13:33:26.071Z,93.70
2018-01-07T13:35:53.563Z,93.70
2018-01-07T13:38:21.076Z,93.50
2018-01-07T13:40:48.554Z,93.60
2018-01-07T13:43:16.059Z,93.60
2018-01-07T13:45:44.319Z,93.50
2018-01-07T13:48:11.875Z,93.50
2018-01-07T13:50:39.360Z,93.40
2018-01-07T13:53:06.834Z,93.40
2018-01-07T13:55:34.330Z,93.60
2018-01-07T13:58:01.851Z,93.60
2018-01-07T14:00:29.330Z,93.80
2018-01-07T14:05:52.900Z,93.40
2018-01-07T14:08:20.440Z,93.30
2018-01-07T14:10:48.671Z,93.30
2018-01-07T14:13:16.179Z,93.30
2018-01-07T14:15:44.434Z,93.40
2018-01-07T14:18:12.703Z,93.30
2018-01-07T14:20:40.240Z,93.30
2018-01-07T14:23:07.737Z,93.10
2018-01-07T14:25:36.043Z,93.20
2018-01-07T14:28:03.562Z,93.20
2018-01-07T14:30:31.050Z,93.30
2018-01-07T14:32:58.603Z,93.30
2018-01-07T14:35:26.070Z,93.40
2018-01-07T14:37:54.307Z,93.40
2018-01-07T14:40:21.819Z,93.40
2018-01-07T14:42:49.342Z,93.40
2018-01-07T14:45:17.618Z,93.40
2018-01-07T14:47:45.846Z,93.40
2018-01-07T14:50:13.334Z,93.40
2018-01-07T14:52:40.866Z,93.40
2018-01-07T14:55:08.359Z,93.40
2018-01-07T14:57:35.882Z,93.50
2018-01-07T15:00:03.369Z,93.40
2018-01-07T15:02:30.935Z,93.40
2018-01-07T15:04:58.358Z,93.40
2018-01-07T15:07:25.860Z,93.40
2018-01-07T15:09:53.346Z,93.40
2018-01-07T15:12:20.854Z,93.40
2018-01-07T15:14:48.391Z,93.40
2018-01-07T15:17:15.863Z,93.30
2018-01-07T15:19:43.365Z,93.40
2018-01-07T15:22:11.638Z,93.30
2018-01-07T15:24:39.918Z,93.30
2018-01-07T15:27:08.178Z,93.30
2018-01-07T15:29:35.662Z,93.30
2018-01-07T15:32:03.915Z,93.30
2018-01-07T15:34:31.423Z,93.30
2018-01-07T15:36:58.904Z,93.30
2018-01-07T15:39:27.167Z,93.30
2018-01-07T15:41:54.651Z,93.30
2018-01-07T15:44:22.188Z,93.30
2018-01-07T15:46:49.671Z,93.30
2018-01-07T15:49:17.158Z,93.30
2018-01-07T15:51:45.443Z,93.40
2018-01-07T15:54:13.690Z,93.30
2018-01-07T15:56:41.211Z,93.30
2018-01-07T15:59:08.679Z,93.30
2018-01-07T16:01:36.190Z,93.30
2018-01-07T16:04:04.463Z,93.20
2018-01-07T16:06:32.772Z,93.20
2018-01-07T16:09:00.415Z,93.20
2018-01-07T16:11:27.942Z,93.30
2018-01-07T16:13:55.451Z,93.20
2018-01-07T16:16:22.934Z,93.10
2018-01-07T16:18:50.385Z,92.70
2018-01-07T16:21:17.919Z,92.80
2018-01-07T16:23:45.431Z,92.80
2018-01-07T16:26:13.826Z,92.80
2018-01-07T16:28:41.305Z,92.80
2018-01-07T16:31:08.806Z,92.80
2018-01-07T16:33:36.311Z,92.80
2018-01-07T16:36:04.554Z,92.90
2018-01-07T16:38:32.058Z,92.90
2018-01-07T16:40:59.566Z,92.90
2018-01-07T16:43:27.063Z,92.90
2018-01-07T16:45:54.602Z,93.00
2018-01-07T16:48:22.056Z,93.00
2018-01-07T16:50:49.558Z,93.00
2018-01-07T16:53:17.051Z,93.10
2018-01-07T16:55:44.505Z,93.10
2018-01-07T16:58:12.021Z,93.10
2018-01-07T17:00:40.261Z,93.10
2018-01-07T17:03:07.779Z,93.10
2018-01-07T17:05:35.264Z,93.10
2018-01-07T17:08:03.564Z,93.20
2018-01-07T17:10:31.083Z,93.20
2018-01-07T17:13:00.922Z,93.20
2018-01-07T17:15:28.410Z,93.20
2018-01-07T17:17:55.930Z,93.20
2018-01-07T17:20:23.578Z,93.30
2018-01-07T17:22:51.092Z,93.30
2018-01-07T17:25:18.586Z,93.30
2018-01-07T17:27:46.062Z,93.30
2018-01-07T17:30:13.569Z,93.30
2018-01-07T17:32:41.054Z,93.30
2018-01-07T17:35:09.291Z,93.30
2018-01-07T17:37:36.810Z,93.30
2018-01-07T17:40:04.286Z,93.30
2018-01-07T17:42:31.783Z,93.30
2018-01-07T17:45:00.034Z,93.30
2018-01-07T17:47:27.522Z,93.30
2018-01-07T17:49:55.794Z,93.30
2018-01-07T17:52:24.031Z,93.40
2018-01-07T17:54:51.535Z,93.30
2018-01-07T17:57:19.860Z,93.30
2018-01-07T17:59:47.361Z,93.30
2018-01-07T18:02:14.904Z,93.30
2018-01-07T18:04:42.365Z,93.30
2018-01-07T18:07:09.897Z,93.30
2018-01-07T18:09:37.669Z,93.30
2018-01-07T18:12:05.231Z,93.20
2018-01-07T18:14:32.783Z,93.20
2018-01-07T18:17:00.283Z,93.20
2018-01-07T18:19:27.770Z,93.10
2018-01-07T18:21:55.275Z,93.10
2018-01-07T18:24:22.739Z,93.10
2018-01-07T18:26:50.253Z,93.10
2018-01-07T18:29:17.735Z,93.10
2018-01-07T18:31:45.278Z,93.10
2018-01-07T18:34:12.762Z,93.00
2018-01-07T18:36:40.239Z,93.00
2018-01-07T18:39:07.727Z,93.00
2018-01-07T18:41:35.988Z,93.00
2018-01-07T18:44:03.478Z,93.00
2018-01-07T18:46:30.966Z,93.00
2018-01-07T18:48:59.289Z,93.00
2018-01-07T18:51:26.793Z,93.00
2018-01-07T18:53:54.297Z,93.00
2018-01-07T18:56:21.769Z,93.00
2018-01-07T18:58:50.048Z,92.90
2018-01-07T19:01:18.310Z,93.00
2018-01-07T19:03:45.806Z,93.00
2018-01-07T19:06:13.279Z,93.00
2018-01-07T19:08:40.737Z,93.00
2018-01-07T19:11:08.252Z,92.90
2018-01-07T19:13:35.754Z,92.90
2018-01-07T19:16:03.246Z,93.00
2018-01-07T19:18:30.709Z,93.00
2018-01-07T19:20:58.199Z,93.00
2018-01-07T19:23:26.459Z,93.00
2018-01-07T19:25:54.762Z,93.00
2018-01-07T19:28:23.012Z,93.00
2018-01-07T19:30:50.525Z,93.00
2018-01-07T19:33:18.027Z,93.00
2018-01-07T19:35:45.509Z,93.00
2018-01-07T19:38:13.783Z,93.00
2018-01-07T19:40:42.033Z,93.00
2018-01-07T19:43:09.511Z,93.00
2018-01-07T19:45:37.777Z,93.00
2018-01-07T19:48:05.250Z,93.00
2018-01-07T19:50:33.538Z,93.00
2018-01-07T19:53:01.015Z,93.00
2018-01-07T19:55:28.530Z,93.10
2018-01-07T19:57:56.022Z,93.00
2018-01-07T20:00:23.495Z,93.00
2018-01-07T20:02:51.007Z,93.00
2018-01-07T20:05:18.486Z,93.00
2018-01-07T20:07:46.791Z,93.00
2018-01-07T20:10:14.296Z,93.00
2018-01-07T20:12:41.804Z,93.10
2018-01-07T20:15:09.332Z,93.00
2018-01-07T20:17:37.621Z,93.10
2018-01-07T20:20:05.879Z,93.10
2018-01-07T20:22:34.158Z,93.00
2018-01-07T20:25:01.618Z,93.10
2018-01-07T20:27:29.901Z,93.10
2018-01-07T20:29:58.140Z,93.00
2018-01-07T20:32:25.608Z,93.00
2018-01-07T20:34:53.104Z,93.00
2018-01-07T20:37:21.358Z,93.00
2018-01-07T20:39:48.847Z,93.00
2018-01-07T20:42:16.312Z,93.10
2018-01-07T20:44:43.809Z,93.00
2018-01-07T20:47:11.308Z,93.10
2018-01-07T20:49:39.573Z,93.10
2018-01-07T20:52:07.062Z,93.00
2018-01-07T20:54:35.308Z,93.00
2018-01-07T20:57:03.556Z,93.10
2018-01-07T20:59:31.098Z,93.00
2018-01-07T21:01:58.602Z,93.00
2018-01-07T21:04:26.109Z,93.10
2018-01-07T21:06:53.641Z,93.00
2018-01-07T21:09:21.142Z,93.00
2018-01-07T21:11:48.671Z,93.00
2018-01-07T21:14:16.152Z,93.00
2018-01-07T21:16:43.631Z,93.00
2018-01-07T21:19:11.142Z,93.00
2018-01-07T21:21:38.618Z,93.00
2018-01-07T21:24:06.129Z,93.00
2018-01-07T21:26:33.598Z,93.10
2018-01-07T21:29:01.871Z,93.00
2018-01-07T21:31:30.126Z,93.00
2018-01-07T21:33:57.594Z,93.00
2018-01-07T21:36:25.151Z,93.00
2018-01-07T21:38:52.643Z,93.00
2018-01-07T21:41:20.864Z,93.00
2018-01-07T21:43:48.359Z,93.00
2018-01-07T21:46:16.620Z,93.00
2018-01-07T21:48:44.111Z,93.00
2018-01-07T21:51:11.607Z,93.00
2018-01-07T21:53:39.095Z,93.10
2018-01-07T21:56:06.591Z,93.00
2018-01-07T21:58:34.918Z,93.00
2018-01-07T22:01:14.322Z,93.00
2018-01-07T22:03:53.781Z,93.00
2018-01-07T22:06:33.187Z,93.00
2018-01-07T22:09:00.702Z,93.10
2018-01-07T22:11:28.167Z,93.10
2018-01-07T22:13:55.649Z,93.10
2018-01-07T22:16:23.919Z,93.10
2018-01-07T22:18:52.185Z,93.20
2018-01-07T22:21:19.699Z,93.10
2018-01-07T22:23:47.179Z,93.10
2018-01-07T22:26:14.660Z,93.10
2018-01-07T22:28:42.168Z,93.10
2018-01-07T22:31:09.627Z,93.10
2018-01-07T22:33:37.095Z,93.20
2018-01-07T22:36:05.047Z,93.20
2018-01-07T22:38:32.516Z,93.20
2018-01-07T22:41:00.040Z,93.10
2018-01-07T22:43:28.301Z,93.20
2018-01-07T22:45:55.787Z,93.10
2018-01-07T22:48:23.293Z,93.20
2018-01-07T22:50:50.757Z,93.10
2018-01-07T22:53:18.256Z,93.10
2018-01-07T22:55:45.719Z,93.10
2018-01-07T22:58:13.201Z,93.20
2018-01-07T23:00:40.702Z,93.10
2018-01-07T23:03:08.180Z,93.10
2018-01-07T23:05:36.430Z,93.10
2018-01-07T23:08:03.901Z,93.10
2018-01-07T23:10:31.402Z,93.10
2018-01-07T23:12:59.374Z,93.10
2018-01-07T23:15:26.840Z,93.10
2018-01-07T23:17:54.338Z,93.10
2018-01-07T23:20:21.832Z,93.10
2018-01-07T23:22:50.086Z,93.10
2018-01-07T23:25:17.569Z,93.10
2018-01-07T23:27:45.367Z,93.10
2018-01-07T23:30:12.862Z,93.10
2018-01-07T23:32:40.340Z,93.10
2018-01-07T23:35:08.601Z,93.10
2018-01-07T23:37:36.071Z,93.00
2018-01-07T23:40:04.330Z,93.00
2018-01-07T23:42:31.821Z,93.00
2018-01-07T23:44:59.290Z,93.10
2018-01-07T23:47:26.749Z,93.00
2018-01-07T23:49:54.282Z,93.10
2018-01-07T23:52:22.517Z,93.10
2018-01-07T23:54:50.026Z,93.10
2018-01-07T23:57:18.273Z,93.10
2018-01-07T23:59:45.782Z,93.10
